To NAV CANADA Home Page Login to a new session Search on AWWS site Feedback and Comments Disclaimer Vers la page française équivalente Tips FAQ What's new on the site To the Forecasts and Observations / NOTAM section To "File a Flight Plan" website Publications and other links Update of the User's profile FIC Telephone Numbers My Weather Data Folder Route Weather Data Regional Weather Data Local Weather Data To the Forecasts and Observations / NOTAM section
Request Generated 07/29/2015 at 02:36:03 UTC . Weather information available at that time is displayed.

METAR/TAF

KUUJJUAQ/QC    

METAR CYVP 290200Z 02004KT 15SM FEW090 FEW170 12/10 A2992 RMK AC2AC1
AC TR SLP132=
METAR CYVP 290100Z 03005KT 15SM FEW090 SCT120 SCT200 13/10 A2991 RMK
AC1AC2CI1 SLP129=
METAR CYVP 290000Z 06006KT 15SM FEW022 FEW050 SCT120 BKN200 15/10
A2991 RMK CU1SC1AC2CI2 MDT CU EMBD SLP129=

TAF CYVP 282339Z 2900/2912 07010KT P6SM FEW030 SCT110
BECMG 2900/2902 VRB03KT
FM290500 VRB03KT P6SM BKN030 TEMPO 2906/2910 BKN020 PROB30
2906/2910 2SM BR BKN005
RMK NXT FCST BY 290600Z=
Your time UTC time
Weather data provided by Environment Canada and NAV CANADA